sensor_id;sensor_type;location;lat;lon;timestamp;pressure;altitude;pressure_sealevel;temperature
69545;BMP180;56766;52.260;20.746;2024-03-07T00:00:11;101362.20;;;2.42
69545;BMP180;56766;52.260;20.746;2024-03-07T00:03:03;101356.00;;;2.40
69545;BMP180;56766;52.260;20.746;2024-03-07T00:05:30;101358.20;;;2.40
69545;BMP180;56766;52.260;20.746;2024-03-07T00:07:57;101355.00;;;2.40
69545;BMP180;56766;52.260;20.746;2024-03-07T00:10:25;101361.00;;;2.30
69545;BMP180;56766;52.260;20.746;2024-03-07T00:12:52;101353.40;;;2.30
69545;BMP180;56766;52.260;20.746;2024-03-07T00:15:19;101360.00;;;2.22
69545;BMP180;56766;52.260;20.746;2024-03-07T00:17:46;101358.40;;;2.20
69545;BMP180;56766;52.260;20.746;2024-03-07T00:20:12;101359.00;;;2.20
69545;BMP180;56766;52.260;20.746;2024-03-07T00:22:45;101363.80;;;2.16
69545;BMP180;56766;52.260;20.746;2024-03-07T00:25:12;101359.60;;;2.10
69545;BMP180;56766;52.260;20.746;2024-03-07T00:27:41;101361.80;;;2.10
69545;BMP180;56766;52.260;20.746;2024-03-07T00:30:08;101356.40;;;2.10
69545;BMP180;56766;52.260;20.746;2024-03-07T00:32:35;101355.00;;;2.00
69545;BMP180;56766;52.260;20.746;2024-03-07T00:35:03;101355.80;;;2.00
69545;BMP180;56766;52.260;20.746;2024-03-07T00:37:30;101356.80;;;2.00
69545;BMP180;56766;52.260;20.746;2024-03-07T00:40:00;101352.00;;;1.94
69545;BMP180;56766;52.260;20.746;2024-03-07T00:42:26;101344.80;;;1.90
69545;BMP180;56766;52.260;20.746;2024-03-07T00:44:56;101345.00;;;1.90
69545;BMP180;56766;52.260;20.746;2024-03-07T00:47:23;101346.00;;;1.80
69545;BMP180;56766;52.260;20.746;2024-03-07T00:49:49;101348.00;;;1.80
69545;BMP180;56766;52.260;20.746;2024-03-07T00:52:16;101350.20;;;1.70
69545;BMP180;56766;52.260;20.746;2024-03-07T00:54:43;101354.20;;;1.70
69545;BMP180;56766;52.260;20.746;2024-03-07T00:57:09;101346.80;;;1.60
69545;BMP180;56766;52.260;20.746;2024-03-07T00:59:36;101354.60;;;1.52
69545;BMP180;56766;52.260;20.746;2024-03-07T01:02:03;101351.60;;;1.50
69545;BMP180;56766;52.260;20.746;2024-03-07T01:04:31;101359.40;;;1.40
69545;BMP180;56766;52.260;20.746;2024-03-07T01:07:00;101350.80;;;1.32
69545;BMP180;56766;52.260;20.746;2024-03-07T01:09:27;101356.40;;;1.30
69545;BMP180;56766;52.260;20.746;2024-03-07T01:11:56;101349.20;;;1.20
69545;BMP180;56766;52.260;20.746;2024-03-07T01:14:23;101351.60;;;1.10
69545;BMP180;56766;52.260;20.746;2024-03-07T01:16:50;101347.40;;;0.98
69545;BMP180;56766;52.260;20.746;2024-03-07T01:19:16;101352.00;;;0.82
69545;BMP180;56766;52.260;20.746;2024-03-07T01:21:43;101352.80;;;0.70
69545;BMP180;56766;52.260;20.746;2024-03-07T01:24:10;101358.60;;;0.64
69545;BMP180;56766;52.260;20.746;2024-03-07T01:26:36;101357.20;;;0.50
69545;BMP180;56766;52.260;20.746;2024-03-07T01:29:03;101355.40;;;0.40
69545;BMP180;56766;52.260;20.746;2024-03-07T01:31:33;101359.60;;;0.30
69545;BMP180;56766;52.260;20.746;2024-03-07T01:34:00;101363.20;;;0.20
69545;BMP180;56766;52.260;20.746;2024-03-07T01:36:27;101361.80;;;0.10
69545;BMP180;56766;52.260;20.746;2024-03-07T01:38:53;101364.00;;;0.10
69545;BMP180;56766;52.260;20.746;2024-03-07T01:41:20;101363.40;;;0.00
69545;BMP180;56766;52.260;20.746;2024-03-07T01:43:47;101362.40;;;-0.04
69545;BMP180;56766;52.260;20.746;2024-03-07T01:46:14;101363.80;;;-0.10
69545;BMP180;56766;52.260;20.746;2024-03-07T01:48:41;101362.00;;;-0.10
69545;BMP180;56766;52.260;20.746;2024-03-07T01:51:08;101362.60;;;-0.20
69545;BMP180;56766;52.260;20.746;2024-03-07T01:53:35;101367.60;;;-0.20
69545;BMP180;56766;52.260;20.746;2024-03-07T01:56:03;101372.40;;;-0.24
69545;BMP180;56766;52.260;20.746;2024-03-07T01:58:32;101369.40;;;-0.30
69545;BMP180;56766;52.260;20.746;2024-03-07T02:01:00;101372.60;;;-0.30
69545;BMP180;56766;52.260;20.746;2024-03-07T02:03:27;101374.00;;;-0.30
69545;BMP180;56766;52.260;20.746;2024-03-07T02:05:54;101372.80;;;-0.38
69545;BMP180;56766;52.260;20.746;2024-03-07T02:08:21;101375.80;;;-0.40
69545;BMP180;56766;52.260;20.746;2024-03-07T02:10:48;101372.40;;;-0.40
69545;BMP180;56766;52.260;20.746;2024-03-07T02:13:15;101371.00;;;-0.40
69545;BMP180;56766;52.260;20.746;2024-03-07T02:15:42;101368.40;;;-0.50
69545;BMP180;56766;52.260;20.746;2024-03-07T02:18:09;101369.80;;;-0.52
69545;BMP180;56766;52.260;20.746;2024-03-07T02:20:36;101372.80;;;-0.60
69545;BMP180;56766;52.260;20.746;2024-03-07T02:23:04;101370.40;;;-0.60
69545;BMP180;56766;52.260;20.746;2024-03-07T02:25:30;101371.40;;;-0.70
69545;BMP180;56766;52.260;20.746;2024-03-07T02:27:58;101369.80;;;-0.80
69545;BMP180;56766;52.260;20.746;2024-03-07T02:30:25;101368.40;;;-0.80
69545;BMP180;56766;52.260;20.746;2024-03-07T02:32:52;101367.60;;;-0.90
69545;BMP180;56766;52.260;20.746;2024-03-07T02:35:21;101374.40;;;-0.96
69545;BMP180;56766;52.260;20.746;2024-03-07T02:37:48;101371.80;;;-1.00
69545;BMP180;56766;52.260;20.746;2024-03-07T02:40:15;101371.60;;;-1.10
69545;BMP180;56766;52.260;20.746;2024-03-07T02:42:43;101375.80;;;-1.14
69545;BMP180;56766;52.260;20.746;2024-03-07T02:45:10;101378.00;;;-1.20
69545;BMP180;56766;52.260;20.746;2024-03-07T02:47:41;101381.60;;;-1.30
69545;BMP180;56766;52.260;20.746;2024-03-07T02:50:09;101382.40;;;-1.30
69545;BMP180;56766;52.260;20.746;2024-03-07T02:52:36;101386.60;;;-1.40
69545;BMP180;56766;52.260;20.746;2024-03-07T02:55:04;101380.80;;;-1.40
69545;BMP180;56766;52.260;20.746;2024-03-07T02:57:32;101380.20;;;-1.50
69545;BMP180;56766;52.260;20.746;2024-03-07T02:59:59;101378.80;;;-1.50
69545;BMP180;56766;52.260;20.746;2024-03-07T03:02:25;101370.60;;;-1.58
69545;BMP180;56766;52.260;20.746;2024-03-07T03:04:52;101378.20;;;-1.60
69545;BMP180;56766;52.260;20.746;2024-03-07T03:07:19;101376.60;;;-1.60
69545;BMP180;56766;52.260;20.746;2024-03-07T03:09:46;101373.80;;;-1.68
69545;BMP180;56766;52.260;20.746;2024-03-07T03:12:13;101377.20;;;-1.70
69545;BMP180;56766;52.260;20.746;2024-03-07T03:14:40;101381.80;;;-1.70
69545;BMP180;56766;52.260;20.746;2024-03-07T03:17:08;101382.00;;;-1.80
69545;BMP180;56766;52.260;20.746;2024-03-07T03:19:35;101384.00;;;-1.80
69545;BMP180;56766;52.260;20.746;2024-03-07T03:22:03;101377.80;;;-1.80
69545;BMP180;56766;52.260;20.746;2024-03-07T03:24:30;101383.20;;;-1.90
69545;BMP180;56766;52.260;20.746;2024-03-07T03:26:57;101376.80;;;-1.90
69545;BMP180;56766;52.260;20.746;2024-03-07T03:29:24;101382.40;;;-1.90
69545;BMP180;56766;52.260;20.746;2024-03-07T03:31:51;101380.20;;;-2.00
69545;BMP180;56766;52.260;20.746;2024-03-07T03:34:17;101382.80;;;-2.00
69545;BMP180;56766;52.260;20.746;2024-03-07T03:36:44;101383.00;;;-2.00
69545;BMP180;56766;52.260;20.746;2024-03-07T03:39:11;101380.00;;;-2.02
69545;BMP180;56766;52.260;20.746;2024-03-07T03:41:39;101386.00;;;-2.08
69545;BMP180;56766;52.260;20.746;2024-03-07T03:44:06;101384.00;;;-2.10
69545;BMP180;56766;52.260;20.746;2024-03-07T03:46:33;101393.80;;;-2.10
69545;BMP180;56766;52.260;20.746;2024-03-07T03:49:00;101392.40;;;-2.10
69545;BMP180;56766;52.260;20.746;2024-03-07T03:51:26;101384.40;;;-2.10
69545;BMP180;56766;52.260;20.746;2024-03-07T03:53:54;101397.80;;;-2.10
69545;BMP180;56766;52.260;20.746;2024-03-07T03:56:20;101389.80;;;-2.20
69545;BMP180;56766;52.260;20.746;2024-03-07T03:58:47;101394.40;;;-2.20
69545;BMP180;56766;52.260;20.746;2024-03-07T04:01:14;101392.80;;;-2.20
69545;BMP180;56766;52.260;20.746;2024-03-07T04:03:42;101393.00;;;-2.20
69545;BMP180;56766;52.260;20.746;2024-03-07T04:06:13;101395.20;;;-2.20
69545;BMP180;56766;52.260;20.746;2024-03-07T04:08:41;101394.80;;;-2.20
69545;BMP180;56766;52.260;20.746;2024-03-07T04:11:07;101393.20;;;-2.26
69545;BMP180;56766;52.260;20.746;2024-03-07T04:13:36;101394.20;;;-2.30
69545;BMP180;56766;52.260;20.746;2024-03-07T04:16:04;101392.80;;;-2.30
69545;BMP180;56766;52.260;20.746;2024-03-07T04:18:31;101390.20;;;-2.30
69545;BMP180;56766;52.260;20.746;2024-03-07T04:20:58;101391.00;;;-2.30
69545;BMP180;56766;52.260;20.746;2024-03-07T04:23:25;101397.80;;;-2.34
69545;BMP180;56766;52.260;20.746;2024-03-07T04:25:52;101393.40;;;-2.40
69545;BMP180;56766;52.260;20.746;2024-03-07T04:28:19;101397.20;;;-2.40
69545;BMP180;56766;52.260;20.746;2024-03-07T04:30:47;101394.40;;;-2.40
69545;BMP180;56766;52.260;20.746;2024-03-07T04:33:15;101396.80;;;-2.42
69545;BMP180;56766;52.260;20.746;2024-03-07T04:35:42;101395.60;;;-2.42
69545;BMP180;56766;52.260;20.746;2024-03-07T04:38:09;101398.40;;;-2.46
69545;BMP180;56766;52.260;20.746;2024-03-07T04:40:37;101402.20;;;-2.50
69545;BMP180;56766;52.260;20.746;2024-03-07T04:43:05;101396.80;;;-2.50
69545;BMP180;56766;52.260;20.746;2024-03-07T04:45:32;101403.60;;;-2.50
69545;BMP180;56766;52.260;20.746;2024-03-07T04:47:59;101404.80;;;-2.50
69545;BMP180;56766;52.260;20.746;2024-03-07T04:50:26;101407.20;;;-2.50
69545;BMP180;56766;52.260;20.746;2024-03-07T04:52:53;101402.20;;;-2.50
69545;BMP180;56766;52.260;20.746;2024-03-07T04:55:20;101400.80;;;-2.52
69545;BMP180;56766;52.260;20.746;2024-03-07T04:57:47;101405.00;;;-2.52
69545;BMP180;56766;52.260;20.746;2024-03-07T05:00:15;101405.00;;;-2.52
69545;BMP180;56766;52.260;20.746;2024-03-07T05:02:43;101407.60;;;-2.60
69545;BMP180;56766;52.260;20.746;2024-03-07T05:05:10;101406.60;;;-2.54
69545;BMP180;56766;52.260;20.746;2024-03-07T05:07:37;101414.20;;;-2.52
69545;BMP180;56766;52.260;20.746;2024-03-07T05:10:07;101413.60;;;-2.58
69545;BMP180;56766;52.260;20.746;2024-03-07T05:12:34;101417.00;;;-2.60
69545;BMP180;56766;52.260;20.746;2024-03-07T05:15:02;101417.40;;;-2.56
69545;BMP180;56766;52.260;20.746;2024-03-07T05:17:30;101419.80;;;-2.56
69545;BMP180;56766;52.260;20.746;2024-03-07T05:20:01;101419.00;;;-2.52
69545;BMP180;56766;52.260;20.746;2024-03-07T05:22:29;101420.20;;;-2.50
69545;BMP180;56766;52.260;20.746;2024-03-07T05:24:56;101423.40;;;-2.50
69545;BMP180;56766;52.260;20.746;2024-03-07T05:27:25;101426.00;;;-2.50
69545;BMP180;56766;52.260;20.746;2024-03-07T05:29:51;101429.80;;;-2.50
69545;BMP180;56766;52.260;20.746;2024-03-07T05:32:26;101423.60;;;-2.50
69545;BMP180;56766;52.260;20.746;2024-03-07T05:34:53;101433.00;;;-2.50
69545;BMP180;56766;52.260;20.746;2024-03-07T05:37:21;101430.00;;;-2.44
69545;BMP180;56766;52.260;20.746;2024-03-07T05:39:51;101435.00;;;-2.40
69545;BMP180;56766;52.260;20.746;2024-03-07T05:42:19;101437.20;;;-2.40
69545;BMP180;56766;52.260;20.746;2024-03-07T05:44:46;101440.20;;;-2.40
69545;BMP180;56766;52.260;20.746;2024-03-07T05:47:14;101440.20;;;-2.38
69545;BMP180;56766;52.260;20.746;2024-03-07T05:49:40;101443.00;;;-2.30
69545;BMP180;56766;52.260;20.746;2024-03-07T05:52:08;101442.00;;;-2.30
69545;BMP180;56766;52.260;20.746;2024-03-07T05:54:35;101440.00;;;-2.30
69545;BMP180;56766;52.260;20.746;2024-03-07T05:57:02;101437.80;;;-2.20
69545;BMP180;56766;52.260;20.746;2024-03-07T05:59:29;101443.00;;;-2.20
69545;BMP180;56766;52.260;20.746;2024-03-07T06:01:57;101441.60;;;-2.14
69545;BMP180;56766;52.260;20.746;2024-03-07T06:04:24;101440.40;;;-2.10
69545;BMP180;56766;52.260;20.746;2024-03-07T06:06:51;101442.40;;;-2.00
69545;BMP180;56766;52.260;20.746;2024-03-07T06:09:17;101444.60;;;-2.00
69545;BMP180;56766;52.260;20.746;2024-03-07T06:11:49;101439.60;;;-1.90
69545;BMP180;56766;52.260;20.746;2024-03-07T06:14:16;101444.20;;;-1.86
69545;BMP180;56766;52.260;20.746;2024-03-07T06:16:44;101443.40;;;-1.80
69545;BMP180;56766;52.260;20.746;2024-03-07T06:19:10;101450.60;;;-1.70
69545;BMP180;56766;52.260;20.746;2024-03-07T06:21:40;101445.00;;;-1.62
69545;BMP180;56766;52.260;20.746;2024-03-07T06:24:08;101445.80;;;-1.60
69545;BMP180;56766;52.260;20.746;2024-03-07T06:26:38;101445.60;;;-1.50
69545;BMP180;56766;52.260;20.746;2024-03-07T06:29:15;101451.00;;;-1.40
69545;BMP180;56766;52.260;20.746;2024-03-07T06:31:45;101448.00;;;-1.34
69545;BMP180;56766;52.260;20.746;2024-03-07T06:34:16;101447.60;;;-1.28
69545;BMP180;56766;52.260;20.746;2024-03-07T06:36:44;101455.20;;;-1.14
69545;BMP180;56766;52.260;20.746;2024-03-07T06:39:10;101454.80;;;-1.10
69545;BMP180;56766;52.260;20.746;2024-03-07T06:41:39;101452.80;;;-1.00
69545;BMP180;56766;52.260;20.746;2024-03-07T06:44:06;101452.00;;;-0.90
69545;BMP180;56766;52.260;20.746;2024-03-07T06:46:33;101453.40;;;-0.80
69545;BMP180;56766;52.260;20.746;2024-03-07T06:49:01;101449.80;;;-0.72
69545;BMP180;56766;52.260;20.746;2024-03-07T06:51:28;101452.00;;;-0.64
69545;BMP180;56766;52.260;20.746;2024-03-07T06:53:55;101458.40;;;-0.50
69545;BMP180;56766;52.260;20.746;2024-03-07T06:56:22;101453.00;;;-0.48
69545;BMP180;56766;52.260;20.746;2024-03-07T06:58:50;101449.60;;;-0.30
69545;BMP180;56766;52.260;20.746;2024-03-07T07:01:17;101450.00;;;-0.20
69545;BMP180;56766;52.260;20.746;2024-03-07T07:03:45;101454.20;;;-0.10
69545;BMP180;56766;52.260;20.746;2024-03-07T07:06:15;101453.80;;;0.04
69545;BMP180;56766;52.260;20.746;2024-03-07T07:08:42;101448.80;;;0.20
69545;BMP180;56766;52.260;20.746;2024-03-07T07:11:08;101446.00;;;0.36
69545;BMP180;56766;52.260;20.746;2024-03-07T07:13:37;101452.60;;;0.50
69545;BMP180;56766;52.260;20.746;2024-03-07T07:16:05;101449.80;;;0.62
69545;BMP180;56766;52.260;20.746;2024-03-07T07:18:33;101454.40;;;0.80
69545;BMP180;56766;52.260;20.746;2024-03-07T07:21:02;101450.40;;;1.00
69545;BMP180;56766;52.260;20.746;2024-03-07T07:23:29;101448.20;;;1.14
69545;BMP180;56766;52.260;20.746;2024-03-07T07:25:56;101454.60;;;1.28
69545;BMP180;56766;52.260;20.746;2024-03-07T07:28:23;101452.20;;;1.30
69545;BMP180;56766;52.260;20.746;2024-03-07T07:30:49;101454.40;;;1.48
69545;BMP180;56766;52.260;20.746;2024-03-07T07:33:16;101446.00;;;1.58
69545;BMP180;56766;52.260;20.746;2024-03-07T07:35:44;101443.80;;;1.70
69545;BMP180;56766;52.260;20.746;2024-03-07T07:38:12;101446.60;;;1.82
69545;BMP180;56766;52.260;20.746;2024-03-07T07:40:41;101447.60;;;1.92
69545;BMP180;56766;52.260;20.746;2024-03-07T07:43:08;101441.20;;;2.00
69545;BMP180;56766;52.260;20.746;2024-03-07T07:45:35;101443.60;;;2.16
69545;BMP180;56766;52.260;20.746;2024-03-07T07:48:02;101444.00;;;2.30
69545;BMP180;56766;52.260;20.746;2024-03-07T07:50:29;101438.00;;;2.40
69545;BMP180;56766;52.260;20.746;2024-03-07T07:52:58;101444.40;;;2.60
69545;BMP180;56766;52.260;20.746;2024-03-07T07:55:27;101446.80;;;2.70
69545;BMP180;56766;52.260;20.746;2024-03-07T07:57:57;101442.80;;;2.70
69545;BMP180;56766;52.260;20.746;2024-03-07T08:00:28;101444.00;;;2.80
69545;BMP180;56766;52.260;20.746;2024-03-07T08:03:00;101438.60;;;2.90
69545;BMP180;56766;52.260;20.746;2024-03-07T08:05:33;101432.20;;;3.00
69545;BMP180;56766;52.260;20.746;2024-03-07T08:08:03;101429.00;;;3.10
69545;BMP180;56766;52.260;20.746;2024-03-07T08:10:35;101432.00;;;3.26
69545;BMP180;56766;52.260;20.746;2024-03-07T08:13:05;101432.20;;;3.40
69545;BMP180;56766;52.260;20.746;2024-03-07T08:15:36;101426.40;;;3.60
69545;BMP180;56766;52.260;20.746;2024-03-07T08:18:04;101425.00;;;3.70
69545;BMP180;56766;52.260;20.746;2024-03-07T08:20:35;101422.00;;;3.80
69545;BMP180;56766;52.260;20.746;2024-03-07T08:23:02;101417.80;;;3.80
69545;BMP180;56766;52.260;20.746;2024-03-07T08:25:29;101420.40;;;3.86
69545;BMP180;56766;52.260;20.746;2024-03-07T08:27:58;101423.80;;;4.00
69545;BMP180;56766;52.260;20.746;2024-03-07T08:30:26;101417.80;;;4.10
69545;BMP180;56766;52.260;20.746;2024-03-07T08:32:57;101418.00;;;4.20
69545;BMP180;56766;52.260;20.746;2024-03-07T08:35:25;101416.00;;;4.32
69545;BMP180;56766;52.260;20.746;2024-03-07T08:37:53;101416.80;;;4.40
69545;BMP180;56766;52.260;20.746;2024-03-07T08:40:27;101417.20;;;4.46
69545;BMP180;56766;52.260;20.746;2024-03-07T08:42:59;101417.40;;;4.60
69545;BMP180;56766;52.260;20.746;2024-03-07T08:45:27;101417.00;;;4.70
69545;BMP180;56766;52.260;20.746;2024-03-07T08:47:57;101406.20;;;4.60
69545;BMP180;56766;52.260;20.746;2024-03-07T08:50:24;101406.80;;;4.60
69545;BMP180;56766;52.260;20.746;2024-03-07T08:52:52;101409.20;;;4.54
69545;BMP180;56766;52.260;20.746;2024-03-07T08:55:23;101406.60;;;4.50
69545;BMP180;56766;52.260;20.746;2024-03-07T08:57:51;101404.20;;;4.70
69545;BMP180;56766;52.260;20.746;2024-03-07T09:00:20;101408.40;;;4.84
69545;BMP180;56766;52.260;20.746;2024-03-07T09:02:58;101408.20;;;5.00
69545;BMP180;56766;52.260;20.746;2024-03-07T09:05:26;101394.40;;;5.00
69545;BMP180;56766;52.260;20.746;2024-03-07T09:07:55;101400.00;;;4.96
69545;BMP180;56766;52.260;20.746;2024-03-07T09:10:22;101398.40;;;5.00
69545;BMP180;56766;52.260;20.746;2024-03-07T09:12:51;101402.80;;;5.06
69545;BMP180;56766;52.260;20.746;2024-03-07T09:15:18;101402.60;;;5.20
69545;BMP180;56766;52.260;20.746;2024-03-07T09:17:48;101400.20;;;5.20
69545;BMP180;56766;52.260;20.746;2024-03-07T09:20:15;101397.60;;;5.30
69545;BMP180;56766;52.260;20.746;2024-03-07T09:22:43;101404.00;;;5.40
69545;BMP180;56766;52.260;20.746;2024-03-07T09:25:11;101396.80;;;5.66
69545;BMP180;56766;52.260;20.746;2024-03-07T09:27:40;101395.20;;;5.80
69545;BMP180;56766;52.260;20.746;2024-03-07T09:30:10;101391.00;;;5.88
69545;BMP180;56766;52.260;20.746;2024-03-07T09:32:50;101394.60;;;5.74
69545;BMP180;56766;52.260;20.746;2024-03-07T09:35:18;101392.40;;;5.74
69545;BMP180;56766;52.260;20.746;2024-03-07T09:37:44;101385.80;;;5.70
69545;BMP180;56766;52.260;20.746;2024-03-07T09:40:12;101390.60;;;5.70
69545;BMP180;56766;52.260;20.746;2024-03-07T09:42:49;101393.40;;;5.72
69545;BMP180;56766;52.260;20.746;2024-03-07T09:45:20;101387.00;;;5.76
69545;BMP180;56766;52.260;20.746;2024-03-07T09:47:50;101389.80;;;5.70
69545;BMP180;56766;52.260;20.746;2024-03-07T09:50:20;101393.00;;;5.70
69545;BMP180;56766;52.260;20.746;2024-03-07T09:52:52;101390.80;;;5.70
69545;BMP180;56766;52.260;20.746;2024-03-07T09:55:20;101387.80;;;5.70
69545;BMP180;56766;52.260;20.746;2024-03-07T09:57:49;101394.20;;;5.60
69545;BMP180;56766;52.260;20.746;2024-03-07T10:00:19;101391.60;;;5.60
69545;BMP180;56766;52.260;20.746;2024-03-07T10:02:59;101390.60;;;5.60
69545;BMP180;56766;52.260;20.746;2024-03-07T10:05:30;101386.40;;;5.68
69545;BMP180;56766;52.260;20.746;2024-03-07T10:07:59;101387.40;;;5.70
69545;BMP180;56766;52.260;20.746;2024-03-07T10:10:27;101383.60;;;5.80
69545;BMP180;56766;52.260;20.746;2024-03-07T10:12:54;101378.00;;;5.80
69545;BMP180;56766;52.260;20.746;2024-03-07T10:15:21;101382.40;;;5.80
69545;BMP180;56766;52.260;20.746;2024-03-07T10:17:48;101380.40;;;5.90
69545;BMP180;56766;52.260;20.746;2024-03-07T10:20:19;101381.00;;;6.10
69545;BMP180;56766;52.260;20.746;2024-03-07T10:22:48;101381.00;;;6.10
69545;BMP180;56766;52.260;20.746;2024-03-07T10:25:20;101389.40;;;6.24
69545;BMP180;56766;52.260;20.746;2024-03-07T10:27:54;101386.40;;;6.30
69545;BMP180;56766;52.260;20.746;2024-03-07T10:30:21;101386.60;;;6.22
69545;BMP180;56766;52.260;20.746;2024-03-07T10:32:55;101382.40;;;6.20
69545;BMP180;56766;52.260;20.746;2024-03-07T10:35:23;101371.60;;;6.20
69545;BMP180;56766;52.260;20.746;2024-03-07T10:37:54;101377.40;;;6.30
69545;BMP180;56766;52.260;20.746;2024-03-07T10:40:23;101379.00;;;6.30
69545;BMP180;56766;52.260;20.746;2024-03-07T10:42:57;101374.00;;;6.40
69545;BMP180;56766;52.260;20.746;2024-03-07T10:45:29;101374.40;;;6.50
69545;BMP180;56766;52.260;20.746;2024-03-07T10:47:58;101376.20;;;6.54
69545;BMP180;56766;52.260;20.746;2024-03-07T10:53:39;101381.20;;;6.70
69545;BMP180;56766;52.260;20.746;2024-03-07T10:56:41;101382.00;;;6.60
69545;BMP180;56766;52.260;20.746;2024-03-07T10:59:19;101369.00;;;6.70
69545;BMP180;56766;52.260;20.746;2024-03-07T11:02:03;101372.80;;;6.62
69545;BMP180;56766;52.260;20.746;2024-03-07T11:04:33;101383.40;;;6.70
69545;BMP180;56766;52.260;20.746;2024-03-07T11:07:01;101376.60;;;6.70
69545;BMP180;56766;52.260;20.746;2024-03-07T11:09:28;101373.20;;;6.80
69545;BMP180;56766;52.260;20.746;2024-03-07T11:12:01;101379.40;;;6.90
69545;BMP180;56766;52.260;20.746;2024-03-07T11:14:37;101374.60;;;6.98
69545;BMP180;56766;52.260;20.746;2024-03-07T11:17:06;101367.20;;;6.90
69545;BMP180;56766;52.260;20.746;2024-03-07T11:19:35;101367.60;;;6.90
69545;BMP180;56766;52.260;20.746;2024-03-07T11:22:03;101373.60;;;7.00
69545;BMP180;56766;52.260;20.746;2024-03-07T11:24:42;101367.80;;;7.00
69545;BMP180;56766;52.260;20.746;2024-03-07T11:27:10;101358.80;;;7.00
69545;BMP180;56766;52.260;20.746;2024-03-07T11:29:50;101356.40;;;7.00
69545;BMP180;56766;52.260;20.746;2024-03-07T11:32:20;101358.40;;;7.14
69545;BMP180;56766;52.260;20.746;2024-03-07T11:34:49;101364.00;;;7.30
69545;BMP180;56766;52.260;20.746;2024-03-07T11:37:19;101364.40;;;7.50
69545;BMP180;56766;52.260;20.746;2024-03-07T11:39:50;101357.80;;;7.60
69545;BMP180;56766;52.260;20.746;2024-03-07T11:42:29;101353.80;;;7.50
69545;BMP180;56766;52.260;20.746;2024-03-07T11:44:59;101355.00;;;7.52
69545;BMP180;56766;52.260;20.746;2024-03-07T11:47:36;101352.40;;;7.60
69545;BMP180;56766;52.260;20.746;2024-03-07T11:50:08;101352.40;;;7.50
69545;BMP180;56766;52.260;20.746;2024-03-07T11:52:38;101347.80;;;7.50
69545;BMP180;56766;52.260;20.746;2024-03-07T11:55:10;101349.20;;;7.58
69545;BMP180;56766;52.260;20.746;2024-03-07T11:57:45;101348.20;;;7.60
69545;BMP180;56766;52.260;20.746;2024-03-07T12:00:14;101343.40;;;7.60
69545;BMP180;56766;52.260;20.746;2024-03-07T12:02:43;101342.20;;;7.60
69545;BMP180;56766;52.260;20.746;2024-03-07T12:05:15;101335.00;;;7.50
69545;BMP180;56766;52.260;20.746;2024-03-07T12:07:44;101340.00;;;7.50
69545;BMP180;56766;52.260;20.746;2024-03-07T12:10:11;101337.20;;;7.50
69545;BMP180;56766;52.260;20.746;2024-03-07T12:12:38;101336.20;;;7.50
69545;BMP180;56766;52.260;20.746;2024-03-07T12:15:08;101341.80;;;7.54
69545;BMP180;56766;52.260;20.746;2024-03-07T12:17:47;101343.40;;;7.70
69545;BMP180;56766;52.260;20.746;2024-03-07T12:20:17;101338.20;;;7.64
69545;BMP180;56766;52.260;20.746;2024-03-07T12:23:01;101329.20;;;7.60
69545;BMP180;56766;52.260;20.746;2024-03-07T12:25:29;101333.60;;;7.58
69545;BMP180;56766;52.260;20.746;2024-03-07T12:28:06;101334.00;;;7.50
69545;BMP180;56766;52.260;20.746;2024-03-07T12:33:13;101326.20;;;7.50
69545;BMP180;56766;52.260;20.746;2024-03-07T12:35:48;101328.40;;;7.60
69545;BMP180;56766;52.260;20.746;2024-03-07T12:38:19;101319.60;;;7.52
69545;BMP180;56766;52.260;20.746;2024-03-07T12:41:07;101328.00;;;7.50
69545;BMP180;56766;52.260;20.746;2024-03-07T12:43:40;101318.60;;;7.40
69545;BMP180;56766;52.260;20.746;2024-03-07T12:46:13;101313.20;;;7.40
69545;BMP180;56766;52.260;20.746;2024-03-07T12:48:44;101317.20;;;7.46
69545;BMP180;56766;52.260;20.746;2024-03-07T12:51:11;101322.00;;;7.52
69545;BMP180;56766;52.260;20.746;2024-03-07T12:53:43;101319.80;;;7.60
69545;BMP180;56766;52.260;20.746;2024-03-07T12:56:10;101315.20;;;7.50
69545;BMP180;56766;52.260;20.746;2024-03-07T12:58:37;101312.40;;;7.40
69545;BMP180;56766;52.260;20.746;2024-03-07T13:01:04;101308.80;;;7.40
69545;BMP180;56766;52.260;20.746;2024-03-07T13:03:31;101308.80;;;7.40
69545;BMP180;56766;52.260;20.746;2024-03-07T13:05:58;101309.60;;;7.40
69545;BMP180;56766;52.260;20.746;2024-03-07T13:08:28;101310.20;;;7.30
69545;BMP180;56766;52.260;20.746;2024-03-07T13:10:58;101302.00;;;7.30
69545;BMP180;56766;52.260;20.746;2024-03-07T13:13:28;101300.80;;;7.40
69545;BMP180;56766;52.260;20.746;2024-03-07T13:15:55;101298.40;;;7.32
69545;BMP180;56766;52.260;20.746;2024-03-07T13:18:22;101294.80;;;7.30
69545;BMP180;56766;52.260;20.746;2024-03-07T13:20:48;101303.20;;;7.36
69545;BMP180;56766;52.260;20.746;2024-03-07T13:23:16;101304.60;;;7.40
69545;BMP180;56766;52.260;20.746;2024-03-07T13:25:43;101292.20;;;7.40
69545;BMP180;56766;52.260;20.746;2024-03-07T13:28:14;101296.00;;;7.40
69545;BMP180;56766;52.260;20.746;2024-03-07T13:30:44;101295.00;;;7.40
69545;BMP180;56766;52.260;20.746;2024-03-07T13:33:15;101291.60;;;7.30
69545;BMP180;56766;52.260;20.746;2024-03-07T13:35:43;101289.40;;;7.30
69545;BMP180;56766;52.260;20.746;2024-03-07T13:38:10;101284.40;;;7.30
69545;BMP180;56766;52.260;20.746;2024-03-07T13:40:36;101281.80;;;7.30
69545;BMP180;56766;52.260;20.746;2024-03-07T13:43:07;101285.60;;;7.20
69545;BMP180;56766;52.260;20.746;2024-03-07T13:45:36;101288.00;;;7.20
69545;BMP180;56766;52.260;20.746;2024-03-07T13:48:09;101281.80;;;7.20
69545;BMP180;56766;52.260;20.746;2024-03-07T13:50:43;101277.60;;;7.30
69545;BMP180;56766;52.260;20.746;2024-03-07T13:53:16;101281.20;;;7.20
69545;BMP180;56766;52.260;20.746;2024-03-07T13:59:26;101282.20;;;7.20
69545;BMP180;56766;52.260;20.746;2024-03-07T14:16:13;101272.40;;;7.10
69545;BMP180;56766;52.260;20.746;2024-03-07T14:22:47;101273.00;;;7.00
69545;BMP180;56766;52.260;20.746;2024-03-07T14:31:09;101274.40;;;6.90
69545;BMP180;56766;52.260;20.746;2024-03-07T14:36:47;101270.20;;;6.80